Terminal Aerodrome Forecast
Issued by NWS Charleston, WV

Current Version | Previous Version | Text Only | Print | Product List | Glossary Off
Versions: 1 2 3 4 5 6 7 8 9 10 11 12 13 14 15 16 17 18 19 20

000
FTUS41 KRLX 270546
TAFBKW
TAF
KBKW 270546Z 2706/2806 16006KT 3SM SHRA BR VCTS SCT015 OVC025CB
      TEMPO 2706/2710 2SM SHRA BR BKN006 OVC012
     FM271000 17007KT 3SM SHRA BR VCTS OVC015CB
     FM271600 20007KT 3SM SHRA BR VCTS BKN035CB
     FM271900 23006KT 6SM SHRA BR VCTS BKN050CB
     FM272200 24006KT P6SM VCTS BKN040CB
     FM280100 26005KT P6SM BKN050
     FM280500 28004KT P6SM BKN025=

USA.gov is the U.S. government's official web portal to all federal, state and local government web resources and services.